createdAt,value
2023-12-30T00:00:53.338Z,16.37
2023-12-30T00:03:25.220Z,16.42
2023-12-30T00:05:54.820Z,16.18
2023-12-30T00:08:47.629Z,16.25
2023-12-30T00:11:40.389Z,16.12
2023-12-30T00:14:18.951Z,16.01
2023-12-30T00:16:50.083Z,16.09
2023-12-30T00:19:46.227Z,16.03
2023-12-30T00:22:36.185Z,15.91
2023-12-30T00:28:05.861Z,15.77
2023-12-30T00:30:41.355Z,15.78
2023-12-30T00:33:32.942Z,15.72
2023-12-30T00:36:24.005Z,15.61
2023-12-30T00:38:59.967Z,15.52
2023-12-30T00:41:51.492Z,15.35
2023-12-30T00:44:25.410Z,15.44
2023-12-30T00:46:59.290Z,15.19
2023-12-30T00:49:28.733Z,15.22
2023-12-30T00:52:00.219Z,15.25
2023-12-30T00:54:38.361Z,15.37
2023-12-30T00:57:29.777Z,15.44
2023-12-30T01:00:22.629Z,15.23
2023-12-30T01:02:54.073Z,15.01
2023-12-30T01:05:26.554Z,15.41
2023-12-30T01:08:16.242Z,15.60
2023-12-30T01:10:48.010Z,15.85
2023-12-30T01:13:24.874Z,15.83
2023-12-30T01:15:54.475Z,15.69
2023-12-30T01:18:25.340Z,16.02
2023-12-30T01:21:41.482Z,15.87
2023-12-30T01:24:17.038Z,16.06
2023-12-30T01:26:54.954Z,15.90
2023-12-30T01:29:37.914Z,16.02
2023-12-30T01:32:16.007Z,16.03
2023-12-30T01:34:45.736Z,15.98
2023-12-30T01:37:15.394Z,15.99
2023-12-30T01:39:47.340Z,15.87
2023-12-30T01:42:16.779Z,16.19
2023-12-30T01:44:46.361Z,16.18
2023-12-30T01:47:18.047Z,16.08
2023-12-30T01:49:48.289Z,16.32
2023-12-30T01:52:22.699Z,16.36
2023-12-30T01:54:52.406Z,16.25
2023-12-30T01:57:25.541Z,16.43
2023-12-30T02:00:24.932Z,16.41
2023-12-30T02:03:12.426Z,16.38
2023-12-30T02:05:44.692Z,16.34
2023-12-30T02:08:18.710Z,16.25
2023-12-30T02:10:55.055Z,16.28
2023-12-30T02:13:25.681Z,16.08
2023-12-30T02:15:57.976Z,16.12
2023-12-30T02:18:27.535Z,16.12
2023-12-30T02:20:57.000Z,16.12
2023-12-30T02:23:26.364Z,16.18
2023-12-30T02:25:56.974Z,16.29
2023-12-30T02:28:26.346Z,16.24
2023-12-30T02:30:55.725Z,16.27
2023-12-30T02:33:30.946Z,16.17
2023-12-30T02:36:03.372Z,16.20
2023-12-30T02:38:33.451Z,16.17
2023-12-30T02:41:04.702Z,16.24
2023-12-30T02:43:52.829Z,16.18
2023-12-30T02:46:24.671Z,16.08
2023-12-30T02:48:56.665Z,16.07
2023-12-30T02:52:01.410Z,16.13
2023-12-30T02:54:24.489Z,16.02
2023-12-30T02:56:58.088Z,15.86
2023-12-30T02:59:29.483Z,15.89
2023-12-30T03:01:59.574Z,15.79
2023-12-30T03:04:32.728Z,15.56
2023-12-30T03:07:05.450Z,15.62
2023-12-30T03:09:36.086Z,15.52
2023-12-30T03:12:06.031Z,15.54
2023-12-30T03:14:35.417Z,15.42
2023-12-30T03:17:05.139Z,15.09
2023-12-30T03:19:37.738Z,15.06
2023-12-30T03:22:07.667Z,15.04
2023-12-30T03:24:36.949Z,15.02
2023-12-30T03:27:10.108Z,15.21
2023-12-30T03:29:39.766Z,15.18
2023-12-30T03:32:09.018Z,15.01
2023-12-30T03:34:40.881Z,15.08
2023-12-30T03:37:10.998Z,15.16
2023-12-30T03:39:40.512Z,15.10
2023-12-30T03:42:12.049Z,15.02
2023-12-30T03:44:47.115Z,14.91
2023-12-30T03:47:16.712Z,15.03
2023-12-30T03:49:52.284Z,14.86
2023-12-30T03:52:42.065Z,14.89
2023-12-30T03:55:11.683Z,14.83
2023-12-30T03:57:41.454Z,14.76
2023-12-30T04:00:16.165Z,14.69
2023-12-30T04:02:49.290Z,14.53
2023-12-30T04:05:25.444Z,14.54
2023-12-30T04:08:12.124Z,14.49
2023-12-30T04:10:41.586Z,14.42
2023-12-30T04:13:13.259Z,14.32
2023-12-30T04:15:44.379Z,14.28
2023-12-30T04:18:16.344Z,14.23
2023-12-30T04:20:45.717Z,14.18
2023-12-30T04:23:20.030Z,14.12
2023-12-30T04:25:55.010Z,14.07
2023-12-30T04:28:24.661Z,14.05
2023-12-30T04:30:54.638Z,13.99
2023-12-30T04:33:24.486Z,13.97
2023-12-30T04:35:55.477Z,13.85
2023-12-30T04:38:31.499Z,13.51
2023-12-30T04:41:20.866Z,13.74
2023-12-30T04:43:50.275Z,13.75
2023-12-30T04:46:29.856Z,13.86
2023-12-30T04:50:08.831Z,13.80
2023-12-30T04:51:56.240Z,13.78
2023-12-30T04:54:27.563Z,13.82
2023-12-30T04:56:59.001Z,13.81
2023-12-30T04:59:31.380Z,13.82
2023-12-30T05:02:20.639Z,13.79
2023-12-30T05:05:10.497Z,13.72
2023-12-30T05:07:42.742Z,13.71
2023-12-30T05:10:14.475Z,13.72
2023-12-30T05:12:48.760Z,13.70
2023-12-30T05:15:18.301Z,13.66
2023-12-30T05:17:47.776Z,13.69
2023-12-30T05:20:25.163Z,13.68
2023-12-30T05:25:45.426Z,13.55
2023-12-30T05:28:17.418Z,13.43
2023-12-30T05:30:46.716Z,13.46
2023-12-30T05:33:18.553Z,13.46
2023-12-30T05:35:52.957Z,13.45
2023-12-30T05:38:23.931Z,13.39
2023-12-30T05:40:53.536Z,13.37
2023-12-30T05:43:27.831Z,13.27
2023-12-30T05:45:57.556Z,13.35
2023-12-30T05:48:28.136Z,13.42
2023-12-30T05:50:57.728Z,13.39
2023-12-30T05:53:27.056Z,13.37
2023-12-30T05:55:59.603Z,13.36
2023-12-30T05:58:31.166Z,13.38
2023-12-30T06:01:04.498Z,13.33
2023-12-30T06:03:37.439Z,13.34
2023-12-30T06:06:07.325Z,13.33
2023-12-30T06:08:37.610Z,13.33
2023-12-30T06:11:07.388Z,13.30
2023-12-30T06:13:37.395Z,13.29
2023-12-30T06:16:14.402Z,13.29
2023-12-30T06:18:43.781Z,13.05
2023-12-30T06:21:13.778Z,12.52
2023-12-30T06:23:48.658Z,12.50
2023-12-30T06:26:33.626Z,12.48
2023-12-30T06:29:04.067Z,12.55
2023-12-30T06:31:43.325Z,12.34
2023-12-30T06:34:15.260Z,12.62
2023-12-30T06:37:07.106Z,12.63
2023-12-30T06:39:41.460Z,12.61
2023-12-30T06:45:03.686Z,12.73
2023-12-30T06:47:32.953Z,12.68
2023-12-30T06:50:03.951Z,12.68
2023-12-30T06:52:33.539Z,12.61
2023-12-30T06:55:20.745Z,12.74
2023-12-30T06:58:03.210Z,12.72
2023-12-30T07:00:35.997Z,12.75
2023-12-30T07:03:05.969Z,12.72
2023-12-30T07:05:39.776Z,12.75
2023-12-30T07:08:09.283Z,12.80
2023-12-30T07:10:38.530Z,12.52
2023-12-30T07:13:11.542Z,12.84
2023-12-30T07:15:47.480Z,12.87
2023-12-30T07:18:37.545Z,12.94
2023-12-30T07:21:07.224Z,12.91
2023-12-30T07:23:36.669Z,12.82
2023-12-30T07:26:09.345Z,12.91
2023-12-30T07:28:38.656Z,12.96
2023-12-30T07:31:09.071Z,12.95
2023-12-30T07:33:41.676Z,12.96
2023-12-30T07:36:12.881Z,12.88
2023-12-30T07:39:04.378Z,12.68
2023-12-30T07:41:40.550Z,12.64
2023-12-30T07:44:12.872Z,12.65
2023-12-30T07:46:45.114Z,12.87
2023-12-30T07:49:14.570Z,13.06
2023-12-30T07:51:43.795Z,12.76
2023-12-30T07:54:16.069Z,12.81
2023-12-30T07:56:45.696Z,12.87
2023-12-30T07:59:17.172Z,12.88
2023-12-30T08:01:46.660Z,12.78
2023-12-30T08:04:21.508Z,12.50
2023-12-30T08:06:51.925Z,12.71
2023-12-30T08:09:21.483Z,12.77
2023-12-30T08:11:59.071Z,12.73
2023-12-30T08:14:48.837Z,12.58
2023-12-30T08:17:18.297Z,12.67
2023-12-30T08:19:50.060Z,12.68
2023-12-30T08:22:22.828Z,12.76
2023-12-30T08:24:56.103Z,12.56
2023-12-30T08:27:28.028Z,12.20
2023-12-30T08:30:00.662Z,12.20
2023-12-30T08:32:30.199Z,12.28
2023-12-30T08:34:59.585Z,12.17
2023-12-30T08:37:28.968Z,12.33
2023-12-30T08:39:58.130Z,12.15
2023-12-30T08:42:27.671Z,12.28
2023-12-30T08:44:57.026Z,12.36
2023-12-30T08:47:38.179Z,12.44
2023-12-30T08:50:30.421Z,12.26
2023-12-30T08:53:00.026Z,12.33
2023-12-30T08:55:29.639Z,12.01
2023-12-30T08:57:58.959Z,11.80
2023-12-30T09:00:31.161Z,11.64
2023-12-30T09:03:00.974Z,11.71
2023-12-30T09:05:30.401Z,11.77
2023-12-30T09:08:00.407Z,11.69
2023-12-30T09:10:33.737Z,11.83
2023-12-30T09:13:06.356Z,11.93
2023-12-30T09:15:36.321Z,11.94
2023-12-30T09:18:06.175Z,11.71
2023-12-30T09:20:40.254Z,12.07
2023-12-30T09:23:13.842Z,12.12
2023-12-30T09:26:03.237Z,12.02
2023-12-30T09:28:37.854Z,12.13
2023-12-30T09:31:12.379Z,12.02
2023-12-30T09:33:44.343Z,11.93
2023-12-30T09:36:14.187Z,11.59
2023-12-30T09:38:43.491Z,11.83
2023-12-30T09:41:15.002Z,11.91
2023-12-30T09:43:46.526Z,11.84
2023-12-30T09:46:17.794Z,11.73
2023-12-30T09:49:56.280Z,11.65
2023-12-30T09:52:02.387Z,11.29
2023-12-30T09:54:45.493Z,11.45
2023-12-30T09:57:29.984Z,11.66
2023-12-30T10:00:01.249Z,11.38
2023-12-30T10:02:34.810Z,11.49
2023-12-30T10:05:06.060Z,11.74
2023-12-30T10:07:36.216Z,11.84
2023-12-30T10:10:06.963Z,11.85
2023-12-30T10:12:36.172Z,11.84
2023-12-30T10:15:08.945Z,11.74
2023-12-30T10:17:40.430Z,11.68
2023-12-30T10:20:11.834Z,11.85
2023-12-30T10:22:41.780Z,11.92
2023-12-30T10:25:14.344Z,11.98
2023-12-30T10:27:43.850Z,11.97
2023-12-30T10:30:17.777Z,11.90
2023-12-30T10:32:49.707Z,11.54
2023-12-30T10:35:22.936Z,11.26
2023-12-30T10:38:06.468Z,11.04
2023-12-30T10:40:42.336Z,11.28
2023-12-30T10:43:13.948Z,10.98
2023-12-30T10:45:45.307Z,10.86
2023-12-30T10:48:14.748Z,11.12
2023-12-30T10:50:51.399Z,11.18
2023-12-30T10:53:41.968Z,11.04
2023-12-30T10:56:14.526Z,11.09
2023-12-30T10:58:51.944Z,11.08
2023-12-30T11:01:47.664Z,11.20
2023-12-30T11:04:17.759Z,11.18
2023-12-30T11:07:13.094Z,11.22
2023-12-30T11:09:45.366Z,11.27
2023-12-30T11:12:15.812Z,11.34
2023-12-30T11:14:45.007Z,11.45
2023-12-30T11:17:35.947Z,11.46
2023-12-30T11:20:34.973Z,11.36
2023-12-30T11:23:06.389Z,11.51
2023-12-30T11:25:57.770Z,11.62
2023-12-30T11:28:34.686Z,11.61
2023-12-30T11:31:04.261Z,11.67
2023-12-30T11:33:34.038Z,11.57
2023-12-30T11:36:07.339Z,11.67
2023-12-30T11:38:41.133Z,11.64
2023-12-30T11:41:34.852Z,11.67
2023-12-30T11:44:07.832Z,11.58
2023-12-30T11:46:40.070Z,11.59
2023-12-30T11:49:12.752Z,11.52
2023-12-30T11:52:02.144Z,11.57
2023-12-30T11:54:51.430Z,11.54
2023-12-30T11:57:29.685Z,11.51
2023-12-30T11:59:59.411Z,11.43
2023-12-30T12:02:30.337Z,11.31
2023-12-30T12:04:59.674Z,11.34
2023-12-30T12:07:31.577Z,11.00
2023-12-30T12:10:01.244Z,11.03
2023-12-30T12:12:56.169Z,11.24
2023-12-30T12:15:27.972Z,11.28
2023-12-30T12:17:58.699Z,11.17
2023-12-30T12:20:31.188Z,11.17
2023-12-30T12:23:01.932Z,11.13
2023-12-30T12:25:31.429Z,10.98
2023-12-30T12:28:08.202Z,10.88
2023-12-30T12:30:38.035Z,11.02
2023-12-30T12:33:08.011Z,10.72
2023-12-30T12:35:37.645Z,10.92
2023-12-30T12:38:06.983Z,10.99
2023-12-30T12:40:36.405Z,10.82
2023-12-30T12:43:08.649Z,10.60
2023-12-30T12:45:43.167Z,10.73
2023-12-30T12:48:14.959Z,10.65
2023-12-30T12:50:45.868Z,10.56
2023-12-30T12:53:15.147Z,10.62
2023-12-30T12:55:44.535Z,10.74
2023-12-30T12:58:14.470Z,10.45
2023-12-30T13:00:46.418Z,10.62
2023-12-30T13:03:19.538Z,10.79
2023-12-30T13:05:48.820Z,10.85
2023-12-30T13:08:19.368Z,10.93
2023-12-30T13:10:50.513Z,10.91
2023-12-30T13:13:21.374Z,10.97
2023-12-30T13:15:50.923Z,10.98
2023-12-30T13:18:22.928Z,11.06
2023-12-30T13:20:52.466Z,11.09
2023-12-30T13:23:25.679Z,10.99
2023-12-30T13:25:55.080Z,10.73
2023-12-30T13:28:26.436Z,10.81
2023-12-30T13:30:56.321Z,10.68
2023-12-30T13:33:28.567Z,10.80
2023-12-30T13:35:58.423Z,10.80
2023-12-30T13:38:35.469Z,10.76
2023-12-30T13:41:08.253Z,10.65
2023-12-30T13:43:39.168Z,10.59
2023-12-30T13:46:26.870Z,10.64
2023-12-30T13:49:36.274Z,10.68
2023-12-30T13:52:21.982Z,10.18
2023-12-30T13:54:51.300Z,10.50
2023-12-30T13:57:25.995Z,10.48
2023-12-30T13:59:55.308Z,10.61
2023-12-30T14:02:27.506Z,10.67
2023-12-30T14:04:59.294Z,10.65
2023-12-30T14:07:31.682Z,10.38
2023-12-30T14:10:17.906Z,10.41
2023-12-30T14:13:20.567Z,10.40
2023-12-30T14:15:51.649Z,10.17
2023-12-30T14:18:22.052Z,10.08
2023-12-30T14:20:51.793Z,10.00
2023-12-30T14:23:20.991Z,10.16
2023-12-30T14:25:53.281Z,10.46
2023-12-30T14:28:24.079Z,10.44
2023-12-30T14:30:54.189Z,10.13
2023-12-30T14:33:26.031Z,10.15
2023-12-30T14:35:55.560Z,10.22
2023-12-30T14:38:27.191Z,10.42
2023-12-30T14:40:59.093Z,10.35
2023-12-30T14:43:28.479Z,10.32
2023-12-30T14:46:00.763Z,10.47
2023-12-30T14:48:35.090Z,10.55
2023-12-30T14:51:09.457Z,10.56
2023-12-30T14:53:38.761Z,10.53
2023-12-30T14:56:10.785Z,10.55
2023-12-30T14:58:43.257Z,10.57
2023-12-30T15:01:13.168Z,10.50
2023-12-30T15:03:43.939Z,10.36
2023-12-30T15:06:15.123Z,10.49
2023-12-30T15:08:44.379Z,10.26
2023-12-30T15:11:13.525Z,10.09
2023-12-30T15:13:44.355Z,10.25
2023-12-30T15:16:14.808Z,10.50
2023-12-30T15:18:43.953Z,10.44
2023-12-30T15:21:13.456Z,10.44
2023-12-30T15:23:44.385Z,10.37
2023-12-30T15:26:19.539Z,10.30
2023-12-30T15:28:49.715Z,10.37
2023-12-30T15:31:20.736Z,10.01
2023-12-30T15:33:50.865Z,9.85
2023-12-30T15:36:24.038Z,10.06
2023-12-30T15:38:53.368Z,9.83
2023-12-30T15:41:25.056Z,9.71
2023-12-30T15:43:54.818Z,9.77
2023-12-30T15:46:29.175Z,10.11
2023-12-30T15:48:58.820Z,9.98
2023-12-30T15:51:28.109Z,9.68
2023-12-30T15:54:00.631Z,9.65
2023-12-30T15:56:32.950Z,9.44
2023-12-30T15:59:02.514Z,9.57
2023-12-30T16:01:31.889Z,9.94
2023-12-30T16:04:08.493Z,9.75
2023-12-30T16:06:38.019Z,9.91
2023-12-30T16:09:08.287Z,10.01
2023-12-30T16:11:42.836Z,10.00
2023-12-30T16:14:32.271Z,10.09
2023-12-30T16:17:05.869Z,10.13
2023-12-30T16:19:39.163Z,10.13
2023-12-30T16:22:08.625Z,10.09
2023-12-30T16:24:38.083Z,10.06
2023-12-30T16:27:07.657Z,9.87
2023-12-30T16:30:00.052Z,9.68
2023-12-30T16:32:31.906Z,9.81
2023-12-30T16:35:01.550Z,9.66
2023-12-30T16:37:33.659Z,9.75
2023-12-30T16:40:03.288Z,9.81
2023-12-30T16:42:40.972Z,9.83
2023-12-30T16:45:12.199Z,9.82
2023-12-30T16:48:03.008Z,9.70
2023-12-30T16:50:37.752Z,9.77
2023-12-30T16:53:07.279Z,9.85
2023-12-30T16:55:40.194Z,9.50
2023-12-30T16:58:12.747Z,9.32
2023-12-30T17:00:42.031Z,9.51
2023-12-30T17:03:12.949Z,9.44
2023-12-30T17:05:57.487Z,9.32
2023-12-30T17:08:38.803Z,9.80
2023-12-30T17:11:08.614Z,9.78
2023-12-30T17:13:50.548Z,9.69
2023-12-30T17:16:32.304Z,9.63
2023-12-30T17:19:07.052Z,9.73
2023-12-30T17:21:39.666Z,9.45
2023-12-30T17:24:09.275Z,9.49
2023-12-30T17:26:42.286Z,9.15
2023-12-30T17:29:11.594Z,9.20
2023-12-30T17:31:40.928Z,9.16
2023-12-30T17:34:14.719Z,9.13
2023-12-30T17:36:46.957Z,9.57
2023-12-30T17:39:19.243Z,9.53
2023-12-30T17:42:11.988Z,9.97
2023-12-30T17:44:41.209Z,10.01
2023-12-30T17:47:11.938Z,9.88
2023-12-30T17:49:41.560Z,9.96
2023-12-30T17:52:12.571Z,9.70
2023-12-30T17:54:44.940Z,9.82
2023-12-30T17:57:14.841Z,9.95
2023-12-30T17:59:46.836Z,9.70
2023-12-30T18:02:20.487Z,9.78
2023-12-30T18:04:50.069Z,9.99
2023-12-30T18:07:19.413Z,10.06
2023-12-30T18:10:19.122Z,9.91
2023-12-30T18:12:50.077Z,10.04
2023-12-30T18:15:23.409Z,9.94
2023-12-30T18:18:13.310Z,9.74
2023-12-30T18:20:43.282Z,9.60
2023-12-30T18:23:20.040Z,9.52
2023-12-30T18:25:49.727Z,9.41
2023-12-30T18:28:20.396Z,9.66
2023-12-30T18:30:55.262Z,9.78
2023-12-30T18:33:25.002Z,9.85
2023-12-30T18:36:13.126Z,9.85
2023-12-30T18:38:45.336Z,9.87
2023-12-30T18:41:17.032Z,10.13
2023-12-30T18:43:52.504Z,9.97
2023-12-30T18:46:21.757Z,9.97
2023-12-30T18:48:51.054Z,10.03
2023-12-30T18:51:23.297Z,10.08
2023-12-30T18:53:53.208Z,10.23
2023-12-30T18:56:22.653Z,10.22
2023-12-30T18:58:53.090Z,10.10
2023-12-30T19:01:22.541Z,10.32
2023-12-30T19:04:15.640Z,10.22
2023-12-30T19:06:58.477Z,10.32
2023-12-30T19:09:29.456Z,10.42
2023-12-30T19:11:58.877Z,10.20
2023-12-30T19:14:32.412Z,10.15
2023-12-30T19:17:02.003Z,10.22
2023-12-30T19:19:51.961Z,10.35
2023-12-30T19:22:22.031Z,10.17
2023-12-30T19:24:51.606Z,10.31
2023-12-30T19:27:25.396Z,10.45
2023-12-30T19:29:54.807Z,10.62
2023-12-30T19:32:27.125Z,10.87
2023-12-30T19:34:59.404Z,10.72
2023-12-30T19:37:31.584Z,10.71
2023-12-30T19:40:00.934Z,10.70
2023-12-30T19:42:30.370Z,10.52
2023-12-30T19:44:59.874Z,10.42
2023-12-30T19:47:55.506Z,10.19
2023-12-30T19:50:30.073Z,10.86
2023-12-30T19:52:59.398Z,10.93
2023-12-30T19:55:35.852Z,10.91
2023-12-30T19:58:05.659Z,10.86
2023-12-30T20:00:37.904Z,10.92
2023-12-30T20:05:58.468Z,11.01
2023-12-30T20:08:35.829Z,10.93
2023-12-30T20:11:05.565Z,10.96
2023-12-30T20:13:44.206Z,10.79
2023-12-30T20:16:26.512Z,10.47
2023-12-30T20:18:58.934Z,10.87
2023-12-30T20:21:30.999Z,11.00
2023-12-30T20:24:32.148Z,10.94
2023-12-30T20:27:04.507Z,10.80
2023-12-30T20:29:34.017Z,10.65
2023-12-30T20:32:05.118Z,10.59
2023-12-30T20:34:34.390Z,10.56
2023-12-30T20:37:06.616Z,10.64
2023-12-30T20:39:36.033Z,10.85
2023-12-30T20:42:05.820Z,11.13
2023-12-30T20:44:35.026Z,11.15
2023-12-30T20:47:05.934Z,11.34
2023-12-30T20:49:36.023Z,11.32
2023-12-30T20:52:07.487Z,11.13
2023-12-30T20:54:40.586Z,10.96
2023-12-30T20:57:10.998Z,10.86
2023-12-30T20:59:42.786Z,10.98
2023-12-30T21:02:17.080Z,10.81
2023-12-30T21:04:48.761Z,10.85
2023-12-30T21:07:20.488Z,10.77
2023-12-30T21:09:49.749Z,10.87
2023-12-30T21:12:40.105Z,11.16
2023-12-30T21:15:12.838Z,11.23
2023-12-30T21:17:42.107Z,11.18
2023-12-30T21:20:14.827Z,11.11
2023-12-30T21:22:50.234Z,11.12
2023-12-30T21:25:26.576Z,11.24
2023-12-30T21:28:11.663Z,10.97
2023-12-30T21:30:41.271Z,11.06
2023-12-30T21:33:13.871Z,10.97
2023-12-30T21:35:48.436Z,11.26
2023-12-30T21:38:20.696Z,11.36
2023-12-30T21:40:50.590Z,11.08
2023-12-30T21:43:22.569Z,10.72
2023-12-30T21:45:53.728Z,10.81
2023-12-30T21:48:43.462Z,10.64
2023-12-30T21:51:43.565Z,10.46
2023-12-30T21:54:14.957Z,10.66
2023-12-30T21:56:44.985Z,10.71
2023-12-30T21:59:14.496Z,10.69
2023-12-30T22:01:47.566Z,10.60
2023-12-30T22:04:19.861Z,10.20
2023-12-30T22:06:51.214Z,10.20
2023-12-30T22:09:23.491Z,10.58
2023-12-30T22:11:52.941Z,10.81
2023-12-30T22:14:23.810Z,10.63
2023-12-30T22:16:55.888Z,10.60
2023-12-30T22:19:26.672Z,10.56
2023-12-30T22:22:18.507Z,10.63
2023-12-30T22:24:51.440Z,10.79
2023-12-30T22:27:22.457Z,10.88
2023-12-30T22:29:55.602Z,10.96
2023-12-30T22:32:47.629Z,10.92
2023-12-30T22:35:20.099Z,10.79
2023-12-30T22:37:49.642Z,10.94
2023-12-30T22:40:42.314Z,10.82
2023-12-30T22:43:13.997Z,10.98
2023-12-30T22:45:43.364Z,10.78
2023-12-30T22:48:15.114Z,10.77
2023-12-30T22:50:45.334Z,10.86
2023-12-30T22:53:44.335Z,10.78
2023-12-30T22:56:15.479Z,10.76
2023-12-30T22:58:44.881Z,10.96
2023-12-30T23:01:18.789Z,10.98
2023-12-30T23:03:50.020Z,10.97
2023-12-30T23:06:22.248Z,11.04
2023-12-30T23:08:53.561Z,11.08
2023-12-30T23:11:23.796Z,11.09
2023-12-30T23:13:53.452Z,10.92
2023-12-30T23:16:23.533Z,10.59
2023-12-30T23:18:57.839Z,10.78
2023-12-30T23:21:38.816Z,10.58
2023-12-30T23:24:22.202Z,10.76
2023-12-30T23:26:51.648Z,10.74
2023-12-30T23:29:30.398Z,10.50
2023-12-30T23:32:19.741Z,10.40
2023-12-30T23:34:50.387Z,10.56
2023-12-30T23:37:20.975Z,10.45
2023-12-30T23:39:50.321Z,10.45
2023-12-30T23:42:25.734Z,10.38
2023-12-30T23:44:55.759Z,10.40
2023-12-30T23:47:25.454Z,10.36
2023-12-30T23:49:56.906Z,10.46
2023-12-30T23:52:26.768Z,10.38
2023-12-30T23:54:56.319Z,10.12
2023-12-30T23:57:28.481Z,10.28
2023-12-30T23:59:57.948Z,10.31
